CHURANOV Weather Reports


Display with metric or nautical units.
time (UTC)temp
F
wind
direction
speed
MPH
gust
MPH
rain 1hr
in
rain 24hr
in
rain mn
in
humidity
%
barometer
mb
20190323041138 39 220 5.0 0.0 0.00 0.00 0.00 69
20190323031136 41 210 5.0 0.0 0.00 0.00 0.00 70
20190323021136 39 210 5.0 0.0 0.00 0.00 0.00 75
20190323011136 39 200 5.0 0.0 0.00 0.00 0.00 75
20190323001143 39 200 5.0 0.0 0.00 0.00 0.00 80
20190322231136 41 200 2.0 0.0 0.00 0.00 0.00 70
20190322221137 43 170 2.0 0.0 0.00 0.00 0.00 65
20190322211137 43 160 5.0 0.0 0.00 0.00 0.00 70
20190322201147 45 150 5.0 0.0 0.00 0.00 0.00 65
20190322191146 46 120 5.0 0.0 0.00 0.00 0.00 65
20190322181136 46 110 5.0 0.0 0.00 0.00 0.00 65
20190322171137 48 0 2.0 0.0 0.00 0.00 0.00 66
20190322161137 50 90 7.0 0.0 0.00 0.00 0.00 57
20190322151136 50 60 7.0 0.0 0.00 0.00 0.00 57
20190322141137 50 60 9.0 0.0 0.00 0.00 0.00 57
20190322131137 52 80 5.0 16.0 0.00 0.00 0.00 53
20190322121137 50 70 9.0 0.0 0.00 0.00 0.00 53
20190322111138 48 50 7.0 0.0 0.00 0.00 0.00 53
20190322101137 48 70 5.0 0.0 0.00 0.00 0.00 53
20190322091137 46 70 7.0 0.0 0.00 0.00 0.00 52
20190322081137 45 70 5.0 0.0 0.00 0.00 0.00 52
20190322071137 45 80 5.0 0.0 0.00 0.00 0.00 48
20190322061137 41 100 7.0 0.0 0.00 0.00 0.00 56
20190322051137 39 90 5.0 0.0 0.00 0.00 0.00 55